Time,TemperatureF,DewpointF,PressureIn,WindDirection,WindDirectionDegrees,WindSpeedMPH,WindSpeedGustMPH,Humidity,HourlyPrecipIn,Conditions,Clouds,dailyrainin,SoftwareType,DateUTC
2013-03-31 00:02:00,47.9,42.7,30.13,SE,143,4.0,4.0,82,0.00,,,0.00,Wunderground v.1.15,2013-03-31 04:02:00,
2013-03-31 00:03:00,47.9,42.7,30.13,SE,142,4.0,4.0,82,0.00,,,0.00,Wunderground v.1.15,2013-03-31 04:03:00,
2013-03-31 00:04:00,47.9,42.7,30.13,SE,144,4.0,4.0,82,0.00,,,0.00,Wunderground v.1.15,2013-03-31 04:04:00,
2013-03-31 00:08:00,47.9,42.3,30.13,SE,145,1.0,4.0,81,0.00,,,0.00,Wunderground v.1.15,2013-03-31 04:08:00,
2013-03-31 00:13:00,47.8,42.6,30.13,SSE,168,4.0,4.0,82,0.00,,,0.00,Wunderground v.1.15,2013-03-31 04:13:00,
2013-03-31 00:18:00,47.9,42.3,30.13,SSE,158,5.0,5.0,81,0.00,,,0.00,Wunderground v.1.15,2013-03-31 04:18:00,
2013-03-31 00:24:00,47.9,42.3,30.13,SSE,165,4.0,12.0,81,0.00,,,0.00,Wunderground v.1.15,2013-03-31 04:24:00,
2013-03-31 00:30:00,47.9,42.0,30.12,South,184,3.0,5.0,80,0.00,,,0.00,Wunderground v.1.15,2013-03-31 04:30:00,
2013-03-31 00:35:00,48.0,42.1,30.12,SSE,161,5.0,6.0,80,0.00,,,0.00,Wunderground v.1.15,2013-03-31 04:35:00,
2013-03-31 00:41:00,48.1,42.2,30.12,South,180,9.0,9.0,80,0.00,,,0.00,Wunderground v.1.15,2013-03-31 04:41:00,
2013-03-31 00:46:00,48.0,42.1,30.12,SSE,168,6.0,10.0,80,0.00,,,0.00,Wunderground v.1.15,2013-03-31 04:46:00,
2013-03-31 00:52:00,48.0,42.1,30.12,South,178,9.0,9.0,80,0.00,,,0.00,Wunderground v.1.15,2013-03-31 04:52:00,
2013-03-31 00:58:00,47.9,42.0,30.12,South,171,4.0,9.0,80,0.00,,,0.00,Wunderground v.1.15,2013-03-31 04:58:00,
2013-03-31 01:03:00,47.9,42.0,30.12,South,179,8.0,9.0,80,0.00,,,0.00,Wunderground v.1.15,2013-03-31 05:03:00,
2013-03-31 01:09:00,47.9,42.0,30.12,SSE,165,6.0,9.0,80,0.00,,,0.00,Wunderground v.1.15,2013-03-31 05:09:00,
2013-03-31 01:14:00,47.9,42.0,30.11,SE,142,4.0,8.0,80,0.00,,,0.00,Wunderground v.1.15,2013-03-31 05:14:00,
2013-03-31 01:19:00,47.9,41.7,30.12,SSE,152,5.0,11.0,79,0.00,,,0.00,Wunderground v.1.15,2013-03-31 05:19:00,
2013-03-31 01:24:00,47.9,41.7,30.11,South,173,6.0,11.0,79,0.00,,,0.00,Wunderground v.1.15,2013-03-31 05:24:00,
2013-03-31 01:29:00,47.9,41.7,30.11,South,188,12.0,12.0,79,0.00,,,0.00,Wunderground v.1.15,2013-03-31 05:29:00,
2013-03-31 01:35:00,47.8,41.3,30.11,SSE,167,7.0,9.0,78,0.00,,,0.00,Wunderground v.1.15,2013-03-31 05:35:00,
2013-03-31 01:41:00,47.8,41.6,30.11,South,175,11.0,11.0,79,0.00,,,0.00,Wunderground v.1.15,2013-03-31 05:41:00,
2013-03-31 01:46:00,47.8,41.9,30.11,South,175,6.0,11.0,80,0.00,,,0.00,Wunderground v.1.15,2013-03-31 05:46:00,
2013-03-31 01:52:00,47.7,41.8,30.11,South,180,5.0,9.0,80,0.00,,,0.00,Wunderground v.1.15,2013-03-31 05:52:00,
2013-03-31 01:58:00,47.6,41.7,30.11,South,181,8.0,10.0,80,0.00,,,0.00,Wunderground v.1.15,2013-03-31 05:58:00,
2013-03-31 02:03:00,47.7,41.8,30.11,South,175,6.0,11.0,80,0.00,,,0.00,Wunderground v.1.15,2013-03-31 06:03:00,
2013-03-31 02:08:00,47.6,41.7,30.11,South,179,4.0,11.0,80,0.00,,,0.00,Wunderground v.1.15,2013-03-31 06:08:00,
2013-03-31 02:13:00,47.6,41.7,30.10,South,175,6.0,12.0,80,0.00,,,0.00,Wunderground v.1.15,2013-03-31 06:13:00,
2013-03-31 02:18:00,47.5,41.6,30.10,South,173,8.0,12.0,80,0.00,,,0.00,Wunderground v.1.15,2013-03-31 06:18:00,
2013-03-31 02:23:00,47.5,41.6,30.10,SSE,161,3.0,11.0,80,0.00,,,0.00,Wunderground v.1.15,2013-03-31 06:23:00,
2013-03-31 02:28:00,47.5,41.6,30.10,SE,145,7.0,12.0,80,0.00,,,0.00,Wunderground v.1.15,2013-03-31 06:28:00,
2013-03-31 02:33:00,47.5,41.6,30.10,SSE,167,4.0,10.0,80,0.00,,,0.00,Wunderground v.1.15,2013-03-31 06:33:00,
2013-03-31 02:38:00,47.5,42.0,30.10,South,178,5.0,10.0,81,0.00,,,0.00,Wunderground v.1.15,2013-03-31 06:38:00,
2013-03-31 02:43:00,47.5,41.6,30.10,South,191,10.0,10.0,80,0.00,,,0.00,Wunderground v.1.15,2013-03-31 06:43:00,
2013-03-31 02:48:00,47.5,41.6,30.10,SSE,163,3.0,10.0,80,0.00,,,0.00,Wunderground v.1.15,2013-03-31 06:48:00,
2013-03-31 02:53:00,47.5,41.3,30.09,SSE,161,6.0,9.0,79,0.00,,,0.00,Wunderground v.1.15,2013-03-31 06:53:00,
2013-03-31 02:58:00,47.6,41.4,30.09,SE,142,2.0,11.0,79,0.00,,,0.00,Wunderground v.1.15,2013-03-31 06:58:00,
2013-03-31 03:03:00,47.6,41.4,30.09,SSE,157,4.0,11.0,79,0.00,,,0.00,Wunderground v.1.15,2013-03-31 07:03:00,
2013-03-31 03:08:00,47.6,41.7,30.09,South,176,6.0,12.0,80,0.00,,,0.00,Wunderground v.1.15,2013-03-31 07:08:00,
2013-03-31 03:13:00,47.6,41.7,30.09,SSE,167,4.0,7.0,80,0.00,,,0.00,Wunderground v.1.15,2013-03-31 07:13:00,
2013-03-31 03:18:00,47.6,41.7,30.09,SSW,199,12.0,12.0,80,0.00,,,0.00,Wunderground v.1.15,2013-03-31 07:18:00,
2013-03-31 03:23:00,47.6,41.7,30.09,South,178,3.0,8.0,80,0.00,,,0.00,Wunderground v.1.15,2013-03-31 07:23:00,
2013-03-31 03:28:00,47.5,41.6,30.08,South,176,3.0,8.0,80,0.00,,,0.00,Wunderground v.1.15,2013-03-31 07:28:00,
2013-03-31 03:33:00,47.5,41.6,30.08,SE,144,2.0,9.0,80,0.00,,,0.00,Wunderground v.1.15,2013-03-31 07:33:00,
2013-03-31 03:38:00,47.6,42.4,30.08,SE,143,2.0,9.0,82,0.00,,,0.00,Wunderground v.1.15,2013-03-31 07:38:00,
2013-03-31 03:43:00,47.5,42.9,30.08,SE,143,4.0,4.0,84,0.00,,,0.00,Wunderground v.1.15,2013-03-31 07:43:00,
2013-03-31 03:48:00,47.4,43.1,30.08,SE,142,2.0,4.0,85,0.00,,,0.00,Wunderground v.1.15,2013-03-31 07:48:00,
2013-03-31 03:53:00,47.3,43.3,30.08,SE,142,1.0,4.0,86,0.00,,,0.00,Wunderground v.1.15,2013-03-31 07:53:00,
2013-03-31 03:58:00,47.2,43.2,30.07,SE,143,1.0,4.0,86,0.00,,,0.00,Wunderground v.1.15,2013-03-31 07:58:00,
2013-03-31 04:03:00,47.0,43.3,30.07,SE,143,1.0,4.0,87,0.00,,,0.00,Wunderground v.1.15,2013-03-31 08:03:00,
2013-03-31 04:08:00,46.9,43.2,30.07,SE,142,3.0,4.0,87,0.00,,,0.00,Wunderground v.1.15,2013-03-31 08:08:00,
2013-03-31 04:13:00,46.8,43.1,30.07,SE,143,1.0,3.0,87,0.00,,,0.00,Wunderground v.1.15,2013-03-31 08:13:00,
2013-03-31 04:18:00,46.8,43.1,30.06,SE,143,0.0,3.0,87,0.00,,,0.00,Wunderground v.1.15,2013-03-31 08:18:00,
2013-03-31 04:23:00,46.7,43.0,30.06,SE,142,1.0,2.0,87,0.00,,,0.00,Wunderground v.1.15,2013-03-31 08:23:00,
2013-03-31 04:28:00,46.5,42.8,30.06,SE,142,0.0,3.0,87,0.00,,,0.00,Wunderground v.1.15,2013-03-31 08:28:00,
2013-03-31 04:33:00,46.4,42.4,30.06,SE,142,2.0,2.0,86,0.00,,,0.00,Wunderground v.1.15,2013-03-31 08:33:00,
2013-03-31 04:39:00,46.3,42.3,30.06,SE,142,1.0,2.0,86,0.00,,,0.00,Wunderground v.1.15,2013-03-31 08:39:00,
2013-03-31 04:44:00,46.2,42.2,30.06,SE,142,0.0,2.0,86,0.00,,,0.00,Wunderground v.1.15,2013-03-31 08:44:00,
2013-03-31 04:49:00,46.1,42.4,30.06,SE,143,2.0,2.0,87,0.00,,,0.00,Wunderground v.1.15,2013-03-31 08:49:00,
2013-03-31 04:54:00,46.1,42.4,30.06,SE,143,0.0,2.0,87,0.00,,,0.00,Wunderground v.1.15,2013-03-31 08:54:00,
2013-03-31 04:59:00,46.1,42.7,30.06,SE,143,0.0,2.0,88,0.00,,,0.00,Wunderground v.1.15,2013-03-31 08:59:00,
2013-03-31 05:04:00,46.1,42.7,30.05,SE,142,0.0,3.0,88,0.00,,,0.00,Wunderground v.1.15,2013-03-31 09:04:00,
2013-03-31 05:09:00,46.1,43.0,30.05,SE,143,1.0,3.0,89,0.00,,,0.00,Wunderground v.1.15,2013-03-31 09:09:00,
2013-03-31 05:14:00,46.2,43.1,30.05,SE,143,0.0,2.0,89,0.00,,,0.00,Wunderground v.1.15,2013-03-31 09:14:00,
2013-03-31 05:19:00,46.2,43.4,30.05,SE,142,1.0,3.0,90,0.00,,,0.00,Wunderground v.1.15,2013-03-31 09:19:00,
2013-03-31 05:24:00,46.2,43.4,30.05,SE,142,3.0,4.0,90,0.00,,,0.00,Wunderground v.1.15,2013-03-31 09:24:00,
2013-03-31 05:29:00,46.2,43.4,30.05,SE,140,2.0,11.0,90,0.00,,,0.00,Wunderground v.1.15,2013-03-31 09:29:00,
2013-03-31 05:34:00,46.4,43.3,30.04,SE,141,2.0,6.0,89,0.00,,,0.00,Wunderground v.1.15,2013-03-31 09:34:00,
2013-03-31 05:39:00,46.5,43.4,30.04,SE,142,0.0,6.0,89,0.00,,,0.00,Wunderground v.1.15,2013-03-31 09:39:00,
2013-03-31 05:44:00,46.6,43.5,30.04,SE,142,0.0,3.0,89,0.00,,,0.00,Wunderground v.1.15,2013-03-31 09:44:00,
2013-03-31 05:49:00,46.6,43.5,30.04,SE,142,3.0,3.0,89,0.00,,,0.00,Wunderground v.1.15,2013-03-31 09:49:00,
2013-03-31 05:54:00,46.6,43.5,30.04,SE,143,3.0,6.0,89,0.00,,,0.00,Wunderground v.1.15,2013-03-31 09:54:00,
2013-03-31 05:59:00,46.6,43.2,30.04,SE,143,2.0,6.0,88,0.00,,,0.00,Wunderground v.1.15,2013-03-31 09:59:00,
2013-03-31 06:04:00,46.7,43.0,30.04,SE,128,3.0,5.0,87,0.00,,,0.00,Wunderground v.1.15,2013-03-31 10:04:00,
2013-03-31 06:09:00,46.8,43.1,30.03,SE,144,2.0,5.0,87,0.00,,,0.00,Wunderground v.1.15,2013-03-31 10:09:00,
2013-03-31 06:14:00,46.9,43.2,30.03,SE,129,2.0,6.0,87,0.00,,,0.00,Wunderground v.1.15,2013-03-31 10:14:00,
2013-03-31 06:19:00,47.0,43.6,30.03,SE,132,2.0,6.0,88,0.00,,,0.00,Wunderground v.1.15,2013-03-31 10:19:00,
2013-03-31 06:24:00,47.0,43.6,30.03,SE,142,2.0,6.0,88,0.00,,,0.00,Wunderground v.1.15,2013-03-31 10:24:00,
2013-03-31 06:29:00,46.9,43.5,30.03,SE,144,2.0,6.0,88,0.00,,,0.00,Wunderground v.1.15,2013-03-31 10:29:00,
2013-03-31 06:34:00,47.0,43.6,30.03,SE,144,1.0,4.0,88,0.00,,,0.00,Wunderground v.1.15,2013-03-31 10:34:00,
2013-03-31 06:39:00,47.0,43.6,30.03,SE,142,3.0,4.0,88,0.00,,,0.00,Wunderground v.1.15,2013-03-31 10:39:00,
2013-03-31 06:44:00,47.0,43.6,30.03,SE,143,3.0,5.0,88,0.00,,,0.00,Wunderground v.1.15,2013-03-31 10:44:00,
2013-03-31 06:49:00,47.0,43.3,30.03,SE,143,3.0,6.0,87,0.00,,,0.00,Wunderground v.1.15,2013-03-31 10:49:00,
2013-03-31 06:55:00,47.1,43.4,30.02,SSE,151,6.0,7.0,87,0.00,,,0.00,Wunderground v.1.15,2013-03-31 10:55:00,
2013-03-31 07:00:00,47.2,43.5,30.02,SSE,153,5.0,5.0,87,0.00,,,0.00,Wunderground v.1.15,2013-03-31 11:00:00,
2013-03-31 07:05:00,47.2,43.5,30.02,SSE,156,4.0,7.0,87,0.00,,,0.00,Wunderground v.1.15,2013-03-31 11:05:00,
2013-03-31 07:10:00,47.2,43.5,30.02,SE,145,0.0,3.0,87,0.00,,,0.00,Wunderground v.1.15,2013-03-31 11:10:00,
2013-03-31 07:15:00,47.3,43.6,30.02,SSE,152,1.0,7.0,87,0.00,,,0.00,Wunderground v.1.15,2013-03-31 11:15:00,
2013-03-31 07:20:00,47.3,43.3,30.02,SSE,155,5.0,7.0,86,0.00,,,0.00,Wunderground v.1.15,2013-03-31 11:20:00,
2013-03-31 07:25:00,47.5,43.2,30.02,SSE,159,4.0,11.0,85,0.00,,,0.00,Wunderground v.1.15,2013-03-31 11:25:00,
2013-03-31 07:30:00,47.6,43.3,30.02,SE,138,4.0,5.0,85,0.00,,,0.00,Wunderground v.1.15,2013-03-31 11:30:00,
2013-03-31 07:35:00,47.8,43.2,30.02,SSE,156,4.0,11.0,84,0.00,,,0.00,Wunderground v.1.15,2013-03-31 11:35:00,
2013-03-31 07:40:00,47.9,43.3,30.02,SE,144,3.0,6.0,84,0.00,,,0.00,Wunderground v.1.15,2013-03-31 11:40:00,
2013-03-31 07:45:00,48.1,43.5,30.02,SSE,157,9.0,11.0,84,0.00,,,0.00,Wunderground v.1.15,2013-03-31 11:45:00,
2013-03-31 07:50:00,48.2,43.6,30.02,SE,140,5.0,6.0,84,0.00,,,0.00,Wunderground v.1.15,2013-03-31 11:50:00,
2013-03-31 07:55:00,48.3,43.7,30.02,SE,141,3.0,12.0,84,0.00,,,0.00,Wunderground v.1.15,2013-03-31 11:55:00,
2013-03-31 08:00:00,48.3,43.7,30.02,SSE,164,3.0,6.0,84,0.00,,,0.00,Wunderground v.1.15,2013-03-31 12:00:00,
2013-03-31 08:05:00,48.4,43.8,30.02,SE,144,4.0,7.0,84,0.00,,,0.00,Wunderground v.1.15,2013-03-31 12:05:00,
2013-03-31 08:10:00,48.5,43.9,30.02,SSE,156,3.0,5.0,84,0.00,,,0.00,Wunderground v.1.15,2013-03-31 12:10:00,
2013-03-31 08:15:00,48.7,44.1,30.02,South,173,3.0,13.0,84,0.00,,,0.00,Wunderground v.1.15,2013-03-31 12:15:00,
2013-03-31 08:20:00,48.8,44.2,30.02,SSE,168,5.0,10.0,84,0.00,,,0.00,Wunderground v.1.15,2013-03-31 12:20:00,
2013-03-31 08:25:00,48.9,44.6,30.02,SSE,163,5.0,10.0,85,0.00,,,0.00,Wunderground v.1.15,2013-03-31 12:25:00,
2013-03-31 08:30:00,49.1,44.5,30.02,South,178,7.0,10.0,84,0.00,,,0.00,Wunderground v.1.15,2013-03-31 12:30:00,
2013-03-31 08:35:00,49.2,44.6,30.02,SSE,161,6.0,12.0,84,0.00,,,0.00,Wunderground v.1.15,2013-03-31 12:35:00,
2013-03-31 08:40:00,49.3,44.7,30.02,South,176,4.0,7.0,84,0.00,,,0.00,Wunderground v.1.15,2013-03-31 12:40:00,
2013-03-31 08:45:00,49.4,44.8,30.02,South,180,9.0,10.0,84,0.00,,,0.00,Wunderground v.1.15,2013-03-31 12:45:00,
2013-03-31 08:50:00,49.6,45.0,30.01,SSE,158,7.0,8.0,84,0.00,,,0.00,Wunderground v.1.15,2013-03-31 12:50:00,
2013-03-31 08:55:00,49.7,45.1,30.01,South,175,6.0,9.0,84,0.00,,,0.00,Wunderground v.1.15,2013-03-31 12:55:00,
2013-03-31 09:00:00,49.8,44.8,30.01,South,188,7.0,7.0,83,0.00,,,0.00,Wunderground v.1.15,2013-03-31 13:00:00,
2013-03-31 09:05:00,50.0,45.0,30.00,SSE,162,6.0,9.0,83,0.00,,,0.00,Wunderground v.1.15,2013-03-31 13:05:00,
2013-03-31 09:10:00,50.1,44.8,30.00,South,171,4.0,5.0,82,0.00,,,0.00,Wunderground v.1.15,2013-03-31 13:10:00,
2013-03-31 09:15:00,50.3,45.0,30.00,SSE,162,5.0,11.0,82,0.00,,,0.00,Wunderground v.1.15,2013-03-31 13:15:00,
2013-03-31 09:20:00,50.4,44.8,30.00,South,174,6.0,10.0,81,0.00,,,0.00,Wunderground v.1.15,2013-03-31 13:20:00,
2013-03-31 09:25:00,50.5,44.9,30.00,South,187,8.0,10.0,81,0.00,,,0.00,Wunderground v.1.15,2013-03-31 13:25:00,
2013-03-31 09:30:00,50.7,45.1,30.00,SSE,157,3.0,6.0,81,0.00,,,0.00,Wunderground v.1.15,2013-03-31 13:30:00,
2013-03-31 09:35:00,50.8,45.2,30.00,SSE,159,3.0,9.0,81,0.00,,,0.00,Wunderground v.1.15,2013-03-31 13:35:00,
2013-03-31 09:40:00,50.9,45.3,29.99,SE,145,3.0,4.0,81,0.00,,,0.00,Wunderground v.1.15,2013-03-31 13:40:00,
2013-03-31 09:45:00,51.1,45.5,29.99,SSE,151,3.0,10.0,81,0.00,,,0.00,Wunderground v.1.15,2013-03-31 13:45:00,
2013-03-31 09:51:00,51.4,45.8,29.99,SSE,150,4.0,5.0,81,0.00,,,0.00,Wunderground v.1.15,2013-03-31 13:51:00,
2013-03-31 09:56:00,51.6,45.6,29.98,South,178,4.0,10.0,80,0.00,,,0.00,Wunderground v.1.15,2013-03-31 13:56:00,
2013-03-31 10:01:00,51.8,45.8,29.98,SSE,161,6.0,9.0,80,0.00,,,0.00,Wunderground v.1.15,2013-03-31 14:01:00,
2013-03-31 10:06:00,52.0,45.7,29.98,ESE,107,5.0,14.0,79,0.00,,,0.00,Wunderground v.1.15,2013-03-31 14:06:00,
2013-03-31 10:11:00,52.2,46.2,29.98,SSE,156,1.0,9.0,80,0.00,,,0.00,Wunderground v.1.15,2013-03-31 14:11:00,
2013-03-31 10:16:00,52.4,46.4,29.98,SSE,165,7.0,10.0,80,0.00,,,0.00,Wunderground v.1.15,2013-03-31 14:16:00,
2013-03-31 10:21:00,52.6,46.3,29.98,SSE,159,5.0,13.0,79,0.00,,,0.00,Wunderground v.1.15,2013-03-31 14:21:00,
2013-03-31 10:26:00,52.7,46.4,29.98,South,189,18.0,18.0,79,0.00,,,0.00,Wunderground v.1.15,2013-03-31 14:26:00,
2013-03-31 10:32:00,52.4,46.4,29.98,South,189,12.0,15.0,80,0.00,,,0.00,Wunderground v.1.15,2013-03-31 14:32:00,
2013-03-31 10:37:00,52.4,46.4,29.97,South,177,7.0,19.0,80,0.00,,,0.00,Wunderground v.1.15,2013-03-31 14:37:00,
2013-03-31 10:42:00,52.6,46.3,29.97,SE,132,6.0,15.0,79,0.00,,,0.00,Wunderground v.1.15,2013-03-31 14:42:00,
2013-03-31 10:47:00,52.8,46.5,29.96,South,182,12.0,22.0,79,0.00,,,0.00,Wunderground v.1.15,2013-03-31 14:47:00,
2013-03-31 10:52:00,53.3,46.6,29.96,South,175,9.0,17.0,78,0.00,,,0.00,Wunderground v.1.15,2013-03-31 14:52:00,
2013-03-31 10:57:00,53.6,46.9,29.96,SE,137,9.0,17.0,78,0.00,,,0.00,Wunderground v.1.15,2013-03-31 14:57:00,
2013-03-31 11:02:00,53.8,46.8,29.95,SE,145,11.0,18.0,77,0.00,,,0.00,Wunderground v.1.15,2013-03-31 15:02:00,
2013-03-31 11:07:00,53.9,46.9,29.95,South,182,10.0,18.0,77,0.00,,,0.00,Wunderground v.1.15,2013-03-31 15:07:00,
2013-03-31 11:12:00,54.1,46.7,29.95,South,176,9.0,19.0,76,0.00,,,0.00,Wunderground v.1.15,2013-03-31 15:12:00,
2013-03-31 11:17:00,54.4,47.0,29.96,South,186,20.0,25.0,76,0.00,,,0.00,Wunderground v.1.15,2013-03-31 15:17:00,
2013-03-31 11:22:00,54.1,47.0,29.96,SE,141,10.0,22.0,77,0.00,,,0.00,Wunderground v.1.15,2013-03-31 15:22:00,
2013-03-31 11:29:00,54.6,47.2,29.95,South,187,17.0,25.0,76,0.00,,,0.00,Wunderground v.1.15,2013-03-31 15:29:00,
2013-03-31 11:34:00,53.6,47.2,29.95,South,170,6.0,17.0,79,0.00,,,0.00,Wunderground v.1.15,2013-03-31 15:34:00,
2013-03-31 11:39:00,53.0,47.0,29.95,South,182,6.0,18.0,80,0.00,,,0.00,Wunderground v.1.15,2013-03-31 15:39:00,
2013-03-31 11:44:00,53.2,47.5,29.94,South,173,7.0,24.0,81,0.00,,,0.00,Wunderground v.1.15,2013-03-31 15:44:00,
2013-03-31 11:49:00,52.9,47.2,29.94,South,171,6.0,24.0,81,0.00,,,0.00,Wunderground v.1.15,2013-03-31 15:49:00,
2013-03-31 11:54:00,53.0,47.7,29.93,South,178,8.0,15.0,82,0.00,,,0.00,Wunderground v.1.15,2013-03-31 15:54:00,
2013-03-31 11:59:00,53.5,47.8,29.93,South,188,7.0,15.0,81,0.00,,,0.00,Wunderground v.1.15,2013-03-31 15:59:00,
2013-03-31 12:04:00,53.8,48.1,29.92,SSE,162,5.0,16.0,81,0.00,,,0.00,Wunderground v.1.15,2013-03-31 16:04:00,
2013-03-31 12:09:00,54.0,48.0,29.92,South,182,17.0,23.0,80,0.00,,,0.00,Wunderground v.1.15,2013-03-31 16:09:00,
2013-03-31 12:14:00,54.1,47.7,29.92,SSW,193,13.0,20.0,79,0.00,,,0.00,Wunderground v.1.15,2013-03-31 16:14:00,
2013-03-31 12:19:00,53.9,47.5,29.92,SSE,161,10.0,25.0,79,0.00,,,0.00,Wunderground v.1.15,2013-03-31 16:19:00,
2013-03-31 12:24:00,53.7,47.3,29.91,South,184,13.0,22.0,79,0.00,,,0.00,Wunderground v.1.15,2013-03-31 16:24:00,
2013-03-31 12:29:00,53.3,47.3,29.91,South,178,19.0,26.0,80,0.00,,,0.00,Wunderground v.1.15,2013-03-31 16:29:00,
2013-03-31 12:34:00,52.8,47.1,29.90,South,188,19.0,21.0,81,0.00,,,0.00,Wunderground v.1.15,2013-03-31 16:34:00,
2013-03-31 12:39:00,52.4,47.1,29.90,South,184,14.0,21.0,82,0.00,,,0.00,Wunderground v.1.15,2013-03-31 16:39:00,
2013-03-31 12:44:00,52.2,47.5,29.90,SSE,166,3.0,16.0,84,0.00,,,0.00,Wunderground v.1.15,2013-03-31 16:44:00,
2013-03-31 12:49:00,52.1,47.7,29.90,SSW,207,6.0,18.0,85,0.00,,,0.00,Wunderground v.1.15,2013-03-31 16:49:00,
2013-03-31 12:54:00,52.0,47.9,29.89,South,171,12.0,21.0,86,0.00,,,0.00,Wunderground v.1.15,2013-03-31 16:54:00,
2013-03-31 12:59:00,51.8,48.1,29.89,South,180,14.0,21.0,87,0.00,,,0.00,Wunderground v.1.15,2013-03-31 16:59:00,
2013-03-31 13:04:00,51.7,48.3,29.88,SE,144,7.0,16.0,88,0.00,,,0.00,Wunderground v.1.15,2013-03-31 17:04:00,
2013-03-31 13:09:00,51.7,48.3,29.87,South,175,9.0,16.0,88,0.00,,,0.00,Wunderground v.1.15,2013-03-31 17:09:00,
2013-03-31 13:14:00,51.5,48.4,29.87,South,190,8.0,13.0,89,0.00,,,0.00,Wunderground v.1.15,2013-03-31 17:14:00,
2013-03-31 13:19:00,51.6,48.8,29.86,SSE,163,6.0,15.0,90,0.00,,,0.00,Wunderground v.1.15,2013-03-31 17:19:00,
2013-03-31 13:24:00,51.8,49.0,29.85,SSE,153,4.0,12.0,90,0.00,,,0.00,Wunderground v.1.15,2013-03-31 17:24:00,
2013-03-31 13:29:00,51.9,49.1,29.84,SSE,164,5.0,12.0,90,0.00,,,0.00,Wunderground v.1.15,2013-03-31 17:29:00,
2013-03-31 13:34:00,52.1,49.3,29.84,SE,145,5.0,10.0,90,0.00,,,0.00,Wunderground v.1.15,2013-03-31 17:34:00,
2013-03-31 13:39:00,52.2,49.4,29.84,SSE,160,3.0,10.0,90,0.00,,,0.00,Wunderground v.1.15,2013-03-31 17:39:00,
2013-03-31 13:44:00,52.2,49.4,29.84,SE,138,5.0,9.0,90,0.00,,,0.00,Wunderground v.1.15,2013-03-31 17:44:00,
2013-03-31 13:49:00,52.3,49.8,29.84,SE,146,6.0,11.0,91,0.00,,,0.00,Wunderground v.1.15,2013-03-31 17:49:00,
2013-03-31 13:54:00,52.4,49.8,29.83,SSE,165,5.0,13.0,91,0.00,,,0.00,Wunderground v.1.15,2013-03-31 17:54:00,
2013-03-31 13:59:00,52.4,50.1,29.83,SE,146,6.0,8.0,92,0.00,,,0.00,Wunderground v.1.15,2013-03-31 17:59:00,
2013-03-31 14:05:00,52.3,50.0,29.83,South,169,6.0,11.0,92,0.00,,,0.00,Wunderground v.1.15,2013-03-31 18:05:00,
2013-03-31 14:10:00,52.2,50.2,29.82,ESE,107,6.0,6.0,93,0.00,,,0.00,Wunderground v.1.15,2013-03-31 18:10:00,
2013-03-31 14:15:00,52.1,50.4,29.82,South,174,4.0,9.0,94,0.00,,,0.00,Wunderground v.1.15,2013-03-31 18:15:00,
2013-03-31 14:20:00,52.1,50.4,29.81,SSE,162,7.0,10.0,94,0.00,,,0.01,Wunderground v.1.15,2013-03-31 18:20:00,
2013-03-31 14:25:00,52.1,50.4,29.81,SSE,153,3.0,11.0,94,0.00,,,0.01,Wunderground v.1.15,2013-03-31 18:25:00,
2013-03-31 14:30:00,52.1,50.7,29.81,South,172,5.0,6.0,95,0.00,,,0.01,Wunderground v.1.15,2013-03-31 18:30:00,
2013-03-31 14:35:00,52.0,50.6,29.81,SSE,168,5.0,13.0,95,0.00,,,0.01,Wunderground v.1.15,2013-03-31 18:35:00,
2013-03-31 14:40:00,52.0,50.9,29.80,SE,141,7.0,13.0,96,0.00,,,0.02,Wunderground v.1.15,2013-03-31 18:40:00,
2013-03-31 14:45:00,51.9,50.8,29.79,SSE,167,2.0,13.0,96,0.00,,,0.02,Wunderground v.1.15,2013-03-31 18:45:00,
2013-03-31 14:50:00,51.7,50.6,29.79,SSE,161,5.0,7.0,96,0.00,,,0.02,Wunderground v.1.15,2013-03-31 18:50:00,
2013-03-31 14:55:00,51.7,50.6,29.79,SSE,163,7.0,10.0,96,0.00,,,0.02,Wunderground v.1.15,2013-03-31 18:55:00,
2013-03-31 15:00:00,51.6,50.8,29.78,SSE,159,10.0,10.0,97,0.00,,,0.03,Wunderground v.1.15,2013-03-31 19:00:00,
2013-03-31 15:05:00,51.6,50.8,29.78,SSE,163,6.0,10.0,97,0.00,,,0.03,Wunderground v.1.15,2013-03-31 19:05:00,
2013-03-31 15:10:00,51.5,50.7,29.78,SE,140,4.0,5.0,97,0.00,,,0.03,Wunderground v.1.15,2013-03-31 19:10:00,
2013-03-31 15:15:00,51.4,50.6,29.78,SE,144,8.0,12.0,97,0.00,,,0.03,Wunderground v.1.15,2013-03-31 19:15:00,
2013-03-31 15:20:00,51.6,51.1,29.78,SSE,159,11.0,11.0,98,0.00,,,0.03,Wunderground v.1.15,2013-03-31 19:20:00,
2013-03-31 15:25:00,51.6,51.1,29.77,SSE,159,5.0,11.0,98,0.00,,,0.03,Wunderground v.1.15,2013-03-31 19:25:00,
2013-03-31 15:30:00,51.6,51.1,29.77,South,169,4.0,11.0,98,0.00,,,0.03,Wunderground v.1.15,2013-03-31 19:30:00,
2013-03-31 15:35:00,51.6,51.1,29.77,SE,142,5.0,14.0,98,0.00,,,0.03,Wunderground v.1.15,2013-03-31 19:35:00,
2013-03-31 15:40:00,51.8,51.3,29.76,South,180,13.0,13.0,98,0.00,,,0.03,Wunderground v.1.15,2013-03-31 19:40:00,
2013-03-31 15:45:00,51.8,51.3,29.76,SSE,165,7.0,13.0,98,0.00,,,0.03,Wunderground v.1.15,2013-03-31 19:45:00,
2013-03-31 15:50:00,51.7,51.2,29.77,South,171,13.0,13.0,98,0.00,,,0.03,Wunderground v.1.15,2013-03-31 19:50:00,
2013-03-31 15:55:00,51.6,51.1,29.77,South,169,7.0,18.0,98,0.00,,,0.03,Wunderground v.1.15,2013-03-31 19:55:00,
2013-03-31 16:00:00,51.5,51.0,29.77,SSE,148,8.0,14.0,98,0.00,,,0.03,Wunderground v.1.15,2013-03-31 20:00:00,
2013-03-31 16:05:00,51.2,50.7,29.77,South,179,6.0,17.0,98,0.00,,,0.03,Wunderground v.1.15,2013-03-31 20:05:00,
2013-03-31 16:10:00,50.7,50.2,29.77,SSW,192,12.0,14.0,98,0.00,,,0.03,Wunderground v.1.15,2013-03-31 20:10:00,
2013-03-31 16:15:00,50.1,49.6,29.76,South,186,10.0,14.0,98,0.00,,,0.03,Wunderground v.1.15,2013-03-31 20:15:00,
2013-03-31 16:20:00,50.3,49.8,29.76,South,172,10.0,16.0,98,0.00,,,0.03,Wunderground v.1.15,2013-03-31 20:20:00,
2013-03-31 16:25:00,50.3,49.8,29.76,South,188,11.0,18.0,98,0.00,,,0.03,Wunderground v.1.15,2013-03-31 20:25:00,
2013-03-31 16:30:00,50.0,49.5,29.77,South,188,15.0,15.0,98,0.00,,,0.03,Wunderground v.1.15,2013-03-31 20:30:00,
2013-03-31 16:35:00,49.6,49.1,29.76,South,188,14.0,15.0,98,0.00,,,0.03,Wunderground v.1.15,2013-03-31 20:35:00,
2013-03-31 16:41:00,49.4,48.9,29.76,South,188,14.0,14.0,98,0.00,,,0.03,Wunderground v.1.15,2013-03-31 20:41:00,
2013-03-31 16:46:00,49.4,48.9,29.76,SSW,192,15.0,17.0,98,0.00,,,0.03,Wunderground v.1.15,2013-03-31 20:46:00,
2013-03-31 16:51:00,49.2,48.7,29.76,South,189,13.0,15.0,98,0.00,,,0.03,Wunderground v.1.15,2013-03-31 20:51:00,
2013-03-31 16:56:00,49.0,48.5,29.77,South,188,12.0,15.0,98,0.00,,,0.03,Wunderground v.1.15,2013-03-31 20:56:00,
2013-03-31 17:01:00,48.7,48.2,29.76,South,183,12.0,15.0,98,0.00,,,0.03,Wunderground v.1.15,2013-03-31 21:01:00,
2013-03-31 17:06:00,48.7,48.2,29.76,South,187,11.0,15.0,98,0.00,,,0.03,Wunderground v.1.15,2013-03-31 21:06:00,
2013-03-31 17:11:00,48.6,48.1,29.75,South,184,9.0,13.0,98,0.00,,,0.03,Wunderground v.1.15,2013-03-31 21:11:00,
2013-03-31 17:16:00,48.6,48.3,29.75,South,184,9.0,13.0,99,0.00,,,0.03,Wunderground v.1.15,2013-03-31 21:16:00,
2013-03-31 17:21:00,48.6,48.3,29.75,South,187,10.0,14.0,99,0.00,,,0.03,Wunderground v.1.15,2013-03-31 21:21:00,
2013-03-31 17:27:00,48.5,48.2,29.75,South,186,12.0,14.0,99,0.00,,,0.03,Wunderground v.1.15,2013-03-31 21:27:00,
2013-03-31 17:32:00,48.3,48.0,29.75,South,190,10.0,11.0,99,0.00,,,0.03,Wunderground v.1.15,2013-03-31 21:32:00,
2013-03-31 17:37:00,48.2,47.9,29.75,South,190,9.0,11.0,99,0.00,,,0.03,Wunderground v.1.15,2013-03-31 21:37:00,
2013-03-31 17:42:00,48.1,47.8,29.75,South,190,6.0,9.0,99,0.00,,,0.03,Wunderground v.1.15,2013-03-31 21:42:00,
2013-03-31 17:47:00,48.0,47.7,29.75,South,190,8.0,10.0,99,0.00,,,0.03,Wunderground v.1.15,2013-03-31 21:47:00,
2013-03-31 17:52:00,48.0,47.7,29.75,South,190,9.0,10.0,99,0.00,,,0.03,Wunderground v.1.15,2013-03-31 21:52:00,
2013-03-31 17:57:00,48.0,47.7,29.75,South,191,10.0,10.0,99,0.00,,,0.03,Wunderground v.1.15,2013-03-31 21:57:00,
2013-03-31 18:02:00,48.0,47.7,29.75,South,191,9.0,10.0,99,0.00,,,0.03,Wunderground v.1.15,2013-03-31 22:02:00,
2013-03-31 18:07:00,48.0,47.7,29.76,SSW,192,11.0,11.0,99,0.00,,,0.03,Wunderground v.1.15,2013-03-31 22:07:00,
2013-03-31 18:12:00,48.0,47.7,29.75,South,191,8.0,10.0,99,0.00,,,0.03,Wunderground v.1.15,2013-03-31 22:12:00,
2013-03-31 18:17:00,48.0,47.7,29.75,SSW,192,7.0,10.0,99,0.00,,,0.03,Wunderground v.1.15,2013-03-31 22:17:00,
2013-03-31 18:23:00,48.0,47.7,29.75,SSW,192,5.0,8.0,99,0.00,,,0.03,Wunderground v.1.15,2013-03-31 22:23:00,
2013-03-31 18:28:00,48.0,47.7,29.75,SSW,192,6.0,8.0,99,0.00,,,0.03,Wunderground v.1.15,2013-03-31 22:28:00,
2013-03-31 18:33:00,48.2,47.9,29.74,SSW,192,6.0,6.0,99,0.00,,,0.03,Wunderground v.1.15,2013-03-31 22:33:00,
2013-03-31 18:38:00,48.3,48.0,29.74,SSW,192,5.0,7.0,99,0.00,,,0.03,Wunderground v.1.15,2013-03-31 22:38:00,
2013-03-31 18:43:00,48.3,48.0,29.75,SSW,192,6.0,7.0,99,0.00,,,0.03,Wunderground v.1.15,2013-03-31 22:43:00,
2013-03-31 18:48:00,48.2,47.9,29.74,SSW,192,5.0,7.0,99,0.00,,,0.03,Wunderground v.1.15,2013-03-31 22:48:00,
2013-03-31 18:53:00,48.2,47.9,29.75,SSW,192,5.0,7.0,99,0.00,,,0.03,Wunderground v.1.15,2013-03-31 22:53:00,
2013-03-31 18:58:00,48.3,48.0,29.75,SSW,201,4.0,7.0,99,0.00,,,0.03,Wunderground v.1.15,2013-03-31 22:58:00,
2013-03-31 19:03:00,48.4,48.1,29.74,SSW,201,6.0,6.0,99,0.00,,,0.03,Wunderground v.1.15,2013-03-31 23:03:00,
2013-03-31 19:08:00,48.4,48.1,29.74,SSW,201,3.0,6.0,99,0.00,,,0.03,Wunderground v.1.15,2013-03-31 23:08:00,
2013-03-31 19:13:00,48.3,48.0,29.74,SSW,201,3.0,5.0,99,0.00,,,0.03,Wunderground v.1.15,2013-03-31 23:13:00,
2013-03-31 19:19:00,48.3,48.0,29.74,SSW,200,4.0,5.0,99,0.00,,,0.03,Wunderground v.1.15,2013-03-31 23:19:00,
2013-03-31 19:24:00,48.2,47.9,29.74,SSW,201,3.0,4.0,99,0.00,,,0.03,Wunderground v.1.15,2013-03-31 23:24:00,
2013-03-31 19:29:00,48.2,47.9,29.75,SSW,201,4.0,5.0,99,0.00,,,0.03,Wunderground v.1.15,2013-03-31 23:29:00,
2013-03-31 19:34:00,48.1,47.8,29.75,SSW,201,3.0,4.0,99,0.00,,,0.03,Wunderground v.1.15,2013-03-31 23:34:00,
2013-03-31 19:39:00,48.0,47.7,29.74,SSW,201,3.0,4.0,99,0.00,,,0.03,Wunderground v.1.15,2013-03-31 23:39:00,
2013-03-31 19:44:00,48.0,47.7,29.74,SSW,201,3.0,4.0,99,0.00,,,0.03,Wunderground v.1.15,2013-03-31 23:44:00,
2013-03-31 19:49:00,48.0,47.7,29.76,SSW,200,4.0,4.0,99,0.00,,,0.03,Wunderground v.1.15,2013-03-31 23:49:00,
2013-03-31 19:54:00,48.1,47.8,29.76,SSW,200,3.0,4.0,99,0.00,,,0.03,Wunderground v.1.15,2013-03-31 23:54:00,
2013-03-31 19:59:00,48.1,47.8,29.75,SSW,201,2.0,4.0,99,0.00,,,0.03,Wunderground v.1.15,2013-03-31 23:59:00,
2013-03-31 20:04:00,48.2,47.9,29.75,SSW,201,1.0,3.0,99,0.00,,,0.03,Wunderground v.1.15,2013-04-01 00:04:00,
2013-03-31 20:09:00,48.3,48.0,29.75,SSW,200,1.0,3.0,99,0.00,,,0.03,Wunderground v.1.15,2013-04-01 00:09:00,
2013-03-31 20:14:00,48.4,48.1,29.74,SSW,200,0.0,2.0,99,0.00,,,0.03,Wunderground v.1.15,2013-04-01 00:14:00,
2013-03-31 20:19:00,48.4,48.1,29.75,SSW,201,2.0,3.0,99,0.00,,,0.03,Wunderground v.1.15,2013-04-01 00:19:00,
2013-03-31 20:24:00,48.5,48.2,29.74,SSW,201,2.0,3.0,99,0.00,,,0.03,Wunderground v.1.15,2013-04-01 00:24:00,
2013-03-31 20:29:00,48.5,48.2,29.75,SSW,200,1.0,3.0,99,0.00,,,0.03,Wunderground v.1.15,2013-04-01 00:29:00,
2013-03-31 20:34:00,48.5,48.2,29.74,SSW,201,2.0,3.0,99,0.00,,,0.03,Wunderground v.1.15,2013-04-01 00:34:00,
2013-03-31 20:39:00,48.5,48.2,29.75,SSW,201,2.0,3.0,99,0.00,,,0.03,Wunderground v.1.15,2013-04-01 00:39:00,
2013-03-31 20:44:00,48.6,48.3,29.76,SSW,200,4.0,4.0,99,0.00,,,0.03,Wunderground v.1.15,2013-04-01 00:44:00,
2013-03-31 20:49:00,48.5,48.2,29.76,SSW,201,4.0,4.0,99,0.00,,,0.03,Wunderground v.1.15,2013-04-01 00:49:00,
2013-03-31 20:54:00,48.4,48.1,29.76,SSW,201,4.0,4.0,99,0.00,,,0.03,Wunderground v.1.15,2013-04-01 00:54:00,
2013-03-31 20:59:00,48.4,48.1,29.75,SSW,201,4.0,5.0,99,0.00,,,0.03,Wunderground v.1.15,2013-04-01 00:59:00,
2013-03-31 21:04:00,48.4,48.1,29.76,SSW,200,4.0,5.0,99,0.00,,,0.03,Wunderground v.1.15,2013-04-01 01:04:00,
2013-03-31 21:09:00,48.5,48.2,29.76,SSW,201,4.0,5.0,99,0.00,,,0.03,Wunderground v.1.15,2013-04-01 01:09:00,
2013-03-31 21:14:00,48.5,48.2,29.76,SSW,201,4.0,4.0,99,0.00,,,0.03,Wunderground v.1.15,2013-04-01 01:14:00,
2013-03-31 21:19:00,48.5,48.2,29.76,SSW,201,3.0,4.0,99,0.00,,,0.03,Wunderground v.1.15,2013-04-01 01:19:00,
2013-03-31 21:24:00,48.5,48.2,29.77,SSW,201,3.0,4.0,99,0.00,,,0.03,Wunderground v.1.15,2013-04-01 01:24:00,
2013-03-31 21:29:00,48.5,48.2,29.77,SSW,201,3.0,4.0,99,0.00,,,0.03,Wunderground v.1.15,2013-04-01 01:29:00,
2013-03-31 21:34:00,48.5,48.2,29.77,SSW,201,2.0,4.0,99,0.00,,,0.03,Wunderground v.1.15,2013-04-01 01:34:00,
2013-03-31 21:39:00,48.5,48.2,29.77,SSW,200,1.0,4.0,99,0.00,,,0.03,Wunderground v.1.15,2013-04-01 01:39:00,
2013-03-31 21:45:00,48.4,48.1,29.77,SSW,200,2.0,2.0,99,0.00,,,0.03,Wunderground v.1.15,2013-04-01 01:45:00,
2013-03-31 21:50:00,48.3,48.0,29.77,SSW,201,0.0,1.0,99,0.00,,,0.03,Wunderground v.1.15,2013-04-01 01:50:00,
2013-03-31 21:54:00,48.3,48.0,29.77,SSW,201,0.0,2.0,99,0.00,,,0.03,Wunderground v.1.15,2013-04-01 01:54:00,
2013-03-31 22:00:00,48.2,47.9,29.77,SSW,201,1.0,1.0,99,0.00,,,0.03,Wunderground v.1.15,2013-04-01 02:00:00,
2013-03-31 22:05:00,48.1,47.8,29.78,SSW,201,3.0,3.0,99,0.00,,,0.03,Wunderground v.1.15,2013-04-01 02:05:00,
2013-03-31 22:10:00,48.1,47.8,29.78,SSW,201,2.0,4.0,99,0.00,,,0.03,Wunderground v.1.15,2013-04-01 02:10:00,
2013-03-31 22:14:00,48.1,47.8,29.78,SSW,200,2.0,3.0,99,0.00,,,0.03,Wunderground v.1.15,2013-04-01 02:14:00,
2013-03-31 22:19:00,48.2,47.9,29.78,SSW,200,3.0,3.0,99,0.00,,,0.03,Wunderground v.1.15,2013-04-01 02:19:00,
2013-03-31 22:24:00,48.6,48.3,29.78,SSW,201,3.0,3.0,99,0.00,,,0.03,Wunderground v.1.15,2013-04-01 02:24:00,
2013-03-31 22:29:00,48.8,48.5,29.79,SSW,201,3.0,4.0,99,0.00,,,0.03,Wunderground v.1.15,2013-04-01 02:29:00,
2013-03-31 22:34:00,48.9,48.9,29.79,SSW,201,3.0,4.0,100,0.00,,,0.03,Wunderground v.1.15,2013-04-01 02:34:00,
2013-03-31 22:39:00,48.8,48.5,29.79,SSW,200,3.0,4.0,99,0.00,,,0.03,Wunderground v.1.15,2013-04-01 02:39:00,
2013-03-31 22:44:00,48.7,48.4,29.79,SSW,201,3.0,4.0,99,0.00,,,0.03,Wunderground v.1.15,2013-04-01 02:44:00,
2013-03-31 22:49:00,48.7,48.4,29.78,SSW,201,3.0,4.0,99,0.00,,,0.03,Wunderground v.1.15,2013-04-01 02:49:00,
2013-03-31 22:55:00,48.6,48.3,29.78,SSW,200,1.0,4.0,99,0.00,,,0.03,Wunderground v.1.15,2013-04-01 02:55:00,
2013-03-31 23:00:00,48.5,48.2,29.77,SSW,200,3.0,3.0,99,0.00,,,0.03,Wunderground v.1.15,2013-04-01 03:00:00,
2013-03-31 23:05:00,48.3,48.0,29.78,SSW,201,2.0,3.0,99,0.00,,,0.03,Wunderground v.1.15,2013-04-01 03:05:00,
2013-03-31 23:10:00,48.1,47.8,29.77,SSW,201,1.0,2.0,99,0.00,,,0.03,Wunderground v.1.15,2013-04-01 03:10:00,
2013-03-31 23:15:00,48.1,47.8,29.78,SSW,201,3.0,3.0,99,0.00,,,0.03,Wunderground v.1.15,2013-04-01 03:15:00,
2013-03-31 23:20:00,48.2,47.9,29.77,SSW,201,2.0,2.0,99,0.00,,,0.03,Wunderground v.1.15,2013-04-01 03:20:00,
2013-03-31 23:25:00,48.3,48.0,29.77,SSW,201,1.0,3.0,99,0.00,,,0.03,Wunderground v.1.15,2013-04-01 03:25:00,
2013-03-31 23:30:00,48.2,47.9,29.77,SSW,200,0.0,1.0,99,0.00,,,0.03,Wunderground v.1.15,2013-04-01 03:30:00,
2013-03-31 23:35:00,48.2,47.9,29.77,SSW,201,0.0,1.0,99,0.00,,,0.03,Wunderground v.1.15,2013-04-01 03:35:00,
2013-03-31 23:40:00,48.1,47.8,29.77,SSW,201,0.0,0.0,99,0.00,,,0.03,Wunderground v.1.15,2013-04-01 03:40:00,
2013-03-31 23:45:00,48.0,47.7,29.77,SSW,201,2.0,2.0,99,0.00,,,0.03,Wunderground v.1.15,2013-04-01 03:45:00,
2013-03-31 23:50:00,48.2,47.9,29.77,SSW,200,0.0,1.0,99,0.00,,,0.03,Wunderground v.1.15,2013-04-01 03:50:00,
2013-03-31 23:55:00,48.3,48.0,29.78,SSW,201,0.0,1.0,99,0.00,,,0.03,Wunderground v.1.15,2013-04-01 03:55:00,